sensor_id;sensor_type;location;lat;lon;timestamp;temperature;humidity
10662;DHT22;5379;51.034;7.006;2023-03-03T00:01:20;5.60;99.90
10662;DHT22;5379;51.034;7.006;2023-03-03T00:03:50;5.60;99.90
10662;DHT22;5379;51.034;7.006;2023-03-03T00:06:17;5.60;99.90
10662;DHT22;5379;51.034;7.006;2023-03-03T00:08:44;5.60;99.90
10662;DHT22;5379;51.034;7.006;2023-03-03T00:11:11;5.50;99.90
10662;DHT22;5379;51.034;7.006;2023-03-03T00:13:45;5.60;99.90
10662;DHT22;5379;51.034;7.006;2023-03-03T00:16:18;5.60;99.90
10662;DHT22;5379;51.034;7.006;2023-03-03T00:18:48;5.60;99.90
10662;DHT22;5379;51.034;7.006;2023-03-03T00:21:22;5.20;99.90
10662;DHT22;5379;51.034;7.006;2023-03-03T00:23:51;5.40;99.90
10662;DHT22;5379;51.034;7.006;2023-03-03T00:26:21;5.40;99.90
10662;DHT22;5379;51.034;7.006;2023-03-03T00:28:50;5.40;99.90
10662;DHT22;5379;51.034;7.006;2023-03-03T00:31:21;5.40;99.90
10662;DHT22;5379;51.034;7.006;2023-03-03T00:33:52;5.40;99.90
10662;DHT22;5379;51.034;7.006;2023-03-03T00:36:29;5.40;99.90
10662;DHT22;5379;51.034;7.006;2023-03-03T00:39:09;5.40;99.90
10662;DHT22;5379;51.034;7.006;2023-03-03T00:41:38;5.30;99.90
10662;DHT22;5379;51.034;7.006;2023-03-03T00:44:31;5.40;99.90
10662;DHT22;5379;51.034;7.006;2023-03-03T00:47:08;5.30;99.90
10662;DHT22;5379;51.034;7.006;2023-03-03T00:49:39;5.30;99.90
10662;DHT22;5379;51.034;7.006;2023-03-03T00:52:11;5.40;99.90
10662;DHT22;5379;51.034;7.006;2023-03-03T00:54:39;5.30;99.90
10662;DHT22;5379;51.034;7.006;2023-03-03T00:57:06;6.30;99.90
10662;DHT22;5379;51.034;7.006;2023-03-03T00:59:33;5.30;99.90
10662;DHT22;5379;51.034;7.006;2023-03-03T08:16:46;4.20;99.90
10662;DHT22;5379;51.034;7.006;2023-03-03T08:57:03;4.70;99.90
10662;DHT22;5379;51.034;7.006;2023-03-03T09:02:31;4.90;99.90
10662;DHT22;5379;51.034;7.006;2023-03-03T09:04:59;4.90;99.90
10662;DHT22;5379;51.034;7.006;2023-03-03T09:07:26;6.00;99.90
10662;DHT22;5379;51.034;7.006;2023-03-03T09:09:52;5.00;99.90
10662;DHT22;5379;51.034;7.006;2023-03-03T09:12:25;5.90;99.90
10662;DHT22;5379;51.034;7.006;2023-03-03T09:14:55;5.00;99.90
10662;DHT22;5379;51.034;7.006;2023-03-03T09:17:27;5.20;99.90
10662;DHT22;5379;51.034;7.006;2023-03-03T09:19:57;5.70;99.90
10662;DHT22;5379;51.034;7.006;2023-03-03T09:22:27;5.60;99.90
10662;DHT22;5379;51.034;7.006;2023-03-03T09:24:57;5.50;99.90
10662;DHT22;5379;51.034;7.006;2023-03-03T09:27:28;5.70;99.90
10662;DHT22;5379;51.034;7.006;2023-03-03T09:29:56;5.90;99.90
10662;DHT22;5379;51.034;7.006;2023-03-03T09:32:32;5.80;99.90
10662;DHT22;5379;51.034;7.006;2023-03-03T09:35:00;5.70;99.90
10662;DHT22;5379;51.034;7.006;2023-03-03T09:37:50;5.70;99.90
10662;DHT22;5379;51.034;7.006;2023-03-03T09:40:39;5.70;99.90
10662;DHT22;5379;51.034;7.006;2023-03-03T09:43:20;5.80;99.90
10662;DHT22;5379;51.034;7.006;2023-03-03T09:46:01;5.80;99.90
10662;DHT22;5379;51.034;7.006;2023-03-03T09:48:44;5.80;99.90
10662;DHT22;5379;51.034;7.006;2023-03-03T09:51:43;5.80;99.90
10662;DHT22;5379;51.034;7.006;2023-03-03T09:54:56;5.90;99.90
10662;DHT22;5379;51.034;7.006;2023-03-03T09:58:22;6.00;99.90
10662;DHT22;5379;51.034;7.006;2023-03-03T10:01:04;6.00;99.90
10662;DHT22;5379;51.034;7.006;2023-03-03T10:06:38;5.90;99.90
10662;DHT22;5379;51.034;7.006;2023-03-03T10:09:30;6.20;99.90
10662;DHT22;5379;51.034;7.006;2023-03-03T10:12:06;6.20;99.90
10662;DHT22;5379;51.034;7.006;2023-03-03T10:14:49;5.90;99.90
10662;DHT22;5379;51.034;7.006;2023-03-03T10:17:32;5.70;99.90
10662;DHT22;5379;51.034;7.006;2023-03-03T10:20:16;5.80;99.90
10662;DHT22;5379;51.034;7.006;2023-03-03T10:22:51;5.90;99.90
10662;DHT22;5379;51.034;7.006;2023-03-03T10:25:28;5.80;99.90
10662;DHT22;5379;51.034;7.006;2023-03-03T10:28:20;5.90;99.90
10662;DHT22;5379;51.034;7.006;2023-03-03T10:31:04;5.70;99.90
10662;DHT22;5379;51.034;7.006;2023-03-03T10:33:36;5.80;99.90
10662;DHT22;5379;51.034;7.006;2023-03-03T10:36:24;5.80;99.90
10662;DHT22;5379;51.034;7.006;2023-03-03T10:39:08;5.80;99.90
10662;DHT22;5379;51.034;7.006;2023-03-03T10:41:54;6.00;99.90
10662;DHT22;5379;51.034;7.006;2023-03-03T10:44:47;6.00;99.90
10662;DHT22;5379;51.034;7.006;2023-03-03T10:47:47;6.10;99.90
10662;DHT22;5379;51.034;7.006;2023-03-03T10:50:23;6.20;99.90
10662;DHT22;5379;51.034;7.006;2023-03-03T10:53:02;6.20;99.90
10662;DHT22;5379;51.034;7.006;2023-03-03T10:55:36;6.20;99.90
10662;DHT22;5379;51.034;7.006;2023-03-03T11:01:06;5.80;99.90
10662;DHT22;5379;51.034;7.006;2023-03-03T11:03:58;6.10;99.90
10662;DHT22;5379;51.034;7.006;2023-03-03T11:06:36;6.10;99.90
10662;DHT22;5379;51.034;7.006;2023-03-03T11:09:09;6.30;99.90
10662;DHT22;5379;51.034;7.006;2023-03-03T11:11:44;6.10;99.90
10662;DHT22;5379;51.034;7.006;2023-03-03T11:14:22;6.40;99.90
10662;DHT22;5379;51.034;7.006;2023-03-03T11:16:57;6.60;99.90
10662;DHT22;5379;51.034;7.006;2023-03-03T11:19:39;6.60;99.90
10662;DHT22;5379;51.034;7.006;2023-03-03T11:22:30;6.50;99.90
10662;DHT22;5379;51.034;7.006;2023-03-03T11:25:19;6.50;99.90
10662;DHT22;5379;51.034;7.006;2023-03-03T11:28:12;6.80;99.90
10662;DHT22;5379;51.034;7.006;2023-03-03T11:30:54;6.40;99.90
10662;DHT22;5379;51.034;7.006;2023-03-03T11:33:31;6.50;99.90
10662;DHT22;5379;51.034;7.006;2023-03-03T11:36:09;6.70;99.90
10662;DHT22;5379;51.034;7.006;2023-03-03T11:38:44;6.70;99.90
10662;DHT22;5379;51.034;7.006;2023-03-03T11:41:22;7.00;99.90
10662;DHT22;5379;51.034;7.006;2023-03-03T11:43:56;7.20;99.90
10662;DHT22;5379;51.034;7.006;2023-03-03T11:46:28;7.10;99.90
10662;DHT22;5379;51.034;7.006;2023-03-03T11:48:59;7.10;99.90
10662;DHT22;5379;51.034;7.006;2023-03-03T11:51:39;7.30;99.90
10662;DHT22;5379;51.034;7.006;2023-03-03T11:54:12;7.00;99.90
10662;DHT22;5379;51.034;7.006;2023-03-03T11:56:42;7.30;99.90
10662;DHT22;5379;51.034;7.006;2023-03-03T11:59:29;7.30;99.90
10662;DHT22;5379;51.034;7.006;2023-03-03T12:02:03;7.40;99.90
10662;DHT22;5379;51.034;7.006;2023-03-03T12:04:39;7.20;99.50
10662;DHT22;5379;51.034;7.006;2023-03-03T12:07:18;7.30;99.90
10662;DHT22;5379;51.034;7.006;2023-03-03T12:09:57;7.50;99.90
10662;DHT22;5379;51.034;7.006;2023-03-03T12:12:33;7.60;99.90
10662;DHT22;5379;51.034;7.006;2023-03-03T12:15:16;7.60;99.70
10662;DHT22;5379;51.034;7.006;2023-03-03T12:20:59;7.20;99.90
10662;DHT22;5379;51.034;7.006;2023-03-03T12:23:58;7.10;99.90
10662;DHT22;5379;51.034;7.006;2023-03-03T12:26:32;7.00;99.90
10662;DHT22;5379;51.034;7.006;2023-03-03T12:29:05;6.90;99.90
10662;DHT22;5379;51.034;7.006;2023-03-03T12:31:45;7.00;99.90
10662;DHT22;5379;51.034;7.006;2023-03-03T12:34:19;7.00;99.70
10662;DHT22;5379;51.034;7.006;2023-03-03T12:37:14;6.70;99.70
10662;DHT22;5379;51.034;7.006;2023-03-03T12:39:54;6.50;99.70
10662;DHT22;5379;51.034;7.006;2023-03-03T12:42:31;6.80;99.90
10662;DHT22;5379;51.034;7.006;2023-03-03T12:45:10;7.10;99.90
10662;DHT22;5379;51.034;7.006;2023-03-03T12:47:47;7.50;99.50
10662;DHT22;5379;51.034;7.006;2023-03-03T12:50:33;7.70;99.30
10662;DHT22;5379;51.034;7.006;2023-03-03T12:53:16;7.30;98.60
10662;DHT22;5379;51.034;7.006;2023-03-03T12:55:52;7.30;99.10
10662;DHT22;5379;51.034;7.006;2023-03-03T12:58:28;7.60;99.90
10662;DHT22;5379;51.034;7.006;2023-03-03T13:01:08;7.90;99.50
10662;DHT22;5379;51.034;7.006;2023-03-03T13:03:41;8.10;99.20
10662;DHT22;5379;51.034;7.006;2023-03-03T13:06:16;8.20;98.90
10662;DHT22;5379;51.034;7.006;2023-03-03T13:09:04;8.70;98.70
10662;DHT22;5379;51.034;7.006;2023-03-03T13:11:44;8.70;97.50
10662;DHT22;5379;51.034;7.006;2023-03-03T13:14:24;8.70;98.20
10662;DHT22;5379;51.034;7.006;2023-03-03T13:17:02;8.80;99.00
10662;DHT22;5379;51.034;7.006;2023-03-03T13:19:37;9.00;97.80
10662;DHT22;5379;51.034;7.006;2023-03-03T13:25:33;8.80;97.40
10662;DHT22;5379;51.034;7.006;2023-03-03T13:28:09;8.90;97.60
10662;DHT22;5379;51.034;7.006;2023-03-03T13:30:45;8.80;97.50
10662;DHT22;5379;51.034;7.006;2023-03-03T13:36:50;9.50;98.50
10662;DHT22;5379;51.034;7.006;2023-03-03T13:39:58;9.60;96.80
10662;DHT22;5379;51.034;7.006;2023-03-03T13:42:42;9.00;96.60
10662;DHT22;5379;51.034;7.006;2023-03-03T13:45:34;9.50;97.70
10662;DHT22;5379;51.034;7.006;2023-03-03T13:48:11;9.40;96.70
10662;DHT22;5379;51.034;7.006;2023-03-03T13:50:46;9.40;97.00
10662;DHT22;5379;51.034;7.006;2023-03-03T13:53:31;9.30;97.00
10662;DHT22;5379;51.034;7.006;2023-03-03T13:56:13;9.30;97.20
10662;DHT22;5379;51.034;7.006;2023-03-03T13:58:48;9.70;96.80
10662;DHT22;5379;51.034;7.006;2023-03-03T14:01:23;9.40;96.60
10662;DHT22;5379;51.034;7.006;2023-03-03T14:04:07;8.90;97.20
10662;DHT22;5379;51.034;7.006;2023-03-03T14:06:40;8.40;97.50
10662;DHT22;5379;51.034;7.006;2023-03-03T14:09:36;8.00;97.90
10662;DHT22;5379;51.034;7.006;2023-03-03T14:12:13;8.90;99.00
10662;DHT22;5379;51.034;7.006;2023-03-03T14:14:50;9.40;96.90
10662;DHT22;5379;51.034;7.006;2023-03-03T14:17:26;9.60;96.60
10662;DHT22;5379;51.034;7.006;2023-03-03T14:20:11;10.10;96.90
10662;DHT22;5379;51.034;7.006;2023-03-03T14:22:44;10.30;96.40
10662;DHT22;5379;51.034;7.006;2023-03-03T14:25:13;10.60;97.60
10662;DHT22;5379;51.034;7.006;2023-03-03T14:27:57;10.20;94.90
10662;DHT22;5379;51.034;7.006;2023-03-03T14:30:35;9.70;95.80
10662;DHT22;5379;51.034;7.006;2023-03-03T14:33:18;9.20;96.00
10662;DHT22;5379;51.034;7.006;2023-03-03T14:35:59;9.40;97.30
10662;DHT22;5379;51.034;7.006;2023-03-03T14:38:37;9.50;96.50
10662;DHT22;5379;51.034;7.006;2023-03-03T14:41:13;9.70;97.20
10662;DHT22;5379;51.034;7.006;2023-03-03T14:43:42;10.00;96.80
10662;DHT22;5379;51.034;7.006;2023-03-03T14:46:35;10.20;94.90
10662;DHT22;5379;51.034;7.006;2023-03-03T14:49:05;10.00;94.80
10662;DHT22;5379;51.034;7.006;2023-03-03T14:51:40;9.70;96.20
10662;DHT22;5379;51.034;7.006;2023-03-03T14:54:14;9.60;96.80
10662;DHT22;5379;51.034;7.006;2023-03-03T14:56:58;9.70;95.80
10662;DHT22;5379;51.034;7.006;2023-03-03T14:59:26;10.30;98.80
10662;DHT22;5379;51.034;7.006;2023-03-03T15:02:04;10.60;96.60
10662;DHT22;5379;51.034;7.006;2023-03-03T15:04:38;10.80;94.10
10662;DHT22;5379;51.034;7.006;2023-03-03T15:07:25;11.00;94.60
10662;DHT22;5379;51.034;7.006;2023-03-03T15:09:54;10.80;96.20
10662;DHT22;5379;51.034;7.006;2023-03-03T15:12:23;10.70;95.50
10662;DHT22;5379;51.034;7.006;2023-03-03T15:14:51;10.70;94.60
10662;DHT22;5379;51.034;7.006;2023-03-03T15:17:25;10.30;94.70
10662;DHT22;5379;51.034;7.006;2023-03-03T15:20:20;10.00;95.20
10662;DHT22;5379;51.034;7.006;2023-03-03T15:22:50;10.10;96.20
10662;DHT22;5379;51.034;7.006;2023-03-03T15:25:25;10.10;94.50
10662;DHT22;5379;51.034;7.006;2023-03-03T15:28:11;9.90;96.00
10662;DHT22;5379;51.034;7.006;2023-03-03T15:30:50;9.70;96.20
10662;DHT22;5379;51.034;7.006;2023-03-03T15:33:24;10.60;99.90
10662;DHT22;5379;51.034;7.006;2023-03-03T15:36:03;10.60;94.80
10662;DHT22;5379;51.034;7.006;2023-03-03T15:38:40;10.20;94.70
10662;DHT22;5379;51.034;7.006;2023-03-03T15:41:21;10.20;95.10
10662;DHT22;5379;51.034;7.006;2023-03-03T15:43:58;9.50;95.80
10662;DHT22;5379;51.034;7.006;2023-03-03T15:46:34;9.20;96.50
10662;DHT22;5379;51.034;7.006;2023-03-03T15:49:25;9.10;96.40
10662;DHT22;5379;51.034;7.006;2023-03-03T15:52:09;9.10;96.30
10662;DHT22;5379;51.034;7.006;2023-03-03T15:54:53;8.90;96.80
10662;DHT22;5379;51.034;7.006;2023-03-03T15:57:30;9.00;96.90
10662;DHT22;5379;51.034;7.006;2023-03-03T16:00:12;9.50;96.20
10662;DHT22;5379;51.034;7.006;2023-03-03T16:02:48;9.40;96.20
10662;DHT22;5379;51.034;7.006;2023-03-03T16:05:21;8.90;96.40
10662;DHT22;5379;51.034;7.006;2023-03-03T16:08:00;8.50;97.30
10662;DHT22;5379;51.034;7.006;2023-03-03T16:10:39;8.70;97.30
10662;DHT22;5379;51.034;7.006;2023-03-03T16:13:22;8.80;97.10
10662;DHT22;5379;51.034;7.006;2023-03-03T16:16:01;8.90;97.20
10662;DHT22;5379;51.034;7.006;2023-03-03T16:18:37;9.00;97.40
10662;DHT22;5379;51.034;7.006;2023-03-03T16:21:18;9.00;96.90
10662;DHT22;5379;51.034;7.006;2023-03-03T16:23:50;9.10;96.90
10662;DHT22;5379;51.034;7.006;2023-03-03T16:26:36;9.00;96.50
10662;DHT22;5379;51.034;7.006;2023-03-03T16:29:32;9.00;96.90
10662;DHT22;5379;51.034;7.006;2023-03-03T16:32:05;8.80;96.70
10662;DHT22;5379;51.034;7.006;2023-03-03T16:34:36;8.60;97.10
10662;DHT22;5379;51.034;7.006;2023-03-03T16:37:13;8.50;97.30
10662;DHT22;5379;51.034;7.006;2023-03-03T16:39:51;8.60;97.10
10662;DHT22;5379;51.034;7.006;2023-03-03T16:42:25;8.50;97.20
10662;DHT22;5379;51.034;7.006;2023-03-03T16:47:52;8.20;97.60
10662;DHT22;5379;51.034;7.006;2023-03-03T16:50:26;8.30;97.80
10662;DHT22;5379;51.034;7.006;2023-03-03T16:53:02;8.40;97.50
10662;DHT22;5379;51.034;7.006;2023-03-03T16:55:37;8.30;97.40
10662;DHT22;5379;51.034;7.006;2023-03-03T16:58:19;8.50;97.50
10662;DHT22;5379;51.034;7.006;2023-03-03T17:01:05;8.60;97.40
10662;DHT22;5379;51.034;7.006;2023-03-03T17:06:49;8.50;97.40
10662;DHT22;5379;51.034;7.006;2023-03-03T17:09:34;8.50;97.60
10662;DHT22;5379;51.034;7.006;2023-03-03T17:12:18;8.40;97.50
10662;DHT22;5379;51.034;7.006;2023-03-03T17:15:07;8.30;97.60
10662;DHT22;5379;51.034;7.006;2023-03-03T17:17:42;8.30;97.60
10662;DHT22;5379;51.034;7.006;2023-03-03T17:20:35;8.30;97.90
10662;DHT22;5379;51.034;7.006;2023-03-03T17:23:46;7.90;97.60
10662;DHT22;5379;51.034;7.006;2023-03-03T17:33:54;7.10;97.50
10662;DHT22;5379;51.034;7.006;2023-03-03T17:36:47;7.90;98.20
10662;DHT22;5379;51.034;7.006;2023-03-03T17:43:07;8.20;98.60
10662;DHT22;5379;51.034;7.006;2023-03-03T17:45:50;7.60;98.50
10662;DHT22;5379;51.034;7.006;2023-03-03T17:52:02;7.40;98.70
10662;DHT22;5379;51.034;7.006;2023-03-03T17:54:56;7.40;98.90
10662;DHT22;5379;51.034;7.006;2023-03-03T17:57:41;7.40;98.90
10662;DHT22;5379;51.034;7.006;2023-03-03T18:00:22;7.40;98.80
10662;DHT22;5379;51.034;7.006;2023-03-03T18:03:17;7.30;99.00
10662;DHT22;5379;51.034;7.006;2023-03-03T18:06:05;7.20;99.00
10662;DHT22;5379;51.034;7.006;2023-03-03T18:08:48;7.10;98.90
10662;DHT22;5379;51.034;7.006;2023-03-03T18:11:33;7.00;99.20
10662;DHT22;5379;51.034;7.006;2023-03-03T18:14:34;6.90;99.20
10662;DHT22;5379;51.034;7.006;2023-03-03T18:17:18;6.90;99.40
10662;DHT22;5379;51.034;7.006;2023-03-03T18:22:46;6.70;99.70
10662;DHT22;5379;51.034;7.006;2023-03-03T18:25:17;6.70;99.90
10662;DHT22;5379;51.034;7.006;2023-03-03T18:27:45;6.70;99.70
10662;DHT22;5379;51.034;7.006;2023-03-03T18:30:24;6.70;99.80
10662;DHT22;5379;51.034;7.006;2023-03-03T18:33:07;6.70;99.70
10662;DHT22;5379;51.034;7.006;2023-03-03T18:35:36;6.70;99.70
10662;DHT22;5379;51.034;7.006;2023-03-03T18:38:33;6.60;99.90
10662;DHT22;5379;51.034;7.006;2023-03-03T18:41:04;6.60;99.90
10662;DHT22;5379;51.034;7.006;2023-03-03T18:43:55;6.50;99.90
10662;DHT22;5379;51.034;7.006;2023-03-03T18:46:48;6.40;99.90
10662;DHT22;5379;51.034;7.006;2023-03-03T18:49:16;6.40;99.90
10662;DHT22;5379;51.034;7.006;2023-03-03T18:54:38;6.30;99.90
10662;DHT22;5379;51.034;7.006;2023-03-03T18:57:18;6.20;99.90
10662;DHT22;5379;51.034;7.006;2023-03-03T18:59:53;6.20;99.90
10662;DHT22;5379;51.034;7.006;2023-03-03T19:02:29;6.20;99.90
10662;DHT22;5379;51.034;7.006;2023-03-03T19:05:07;6.20;99.90
10662;DHT22;5379;51.034;7.006;2023-03-03T19:07:55;6.20;99.90
10662;DHT22;5379;51.034;7.006;2023-03-03T19:10:49;6.10;99.90
10662;DHT22;5379;51.034;7.006;2023-03-03T19:13:42;6.10;99.90
10662;DHT22;5379;51.034;7.006;2023-03-03T19:16:28;6.00;99.90
10662;DHT22;5379;51.034;7.006;2023-03-03T19:19:00;5.90;99.90
10662;DHT22;5379;51.034;7.006;2023-03-03T19:21:29;5.90;99.90
10662;DHT22;5379;51.034;7.006;2023-03-03T19:23:58;5.90;99.90
10662;DHT22;5379;51.034;7.006;2023-03-03T19:29:54;5.90;99.90
10662;DHT22;5379;51.034;7.006;2023-03-03T19:32:34;5.90;99.90
10662;DHT22;5379;51.034;7.006;2023-03-03T19:35:17;5.90;99.90
10662;DHT22;5379;51.034;7.006;2023-03-03T19:37:53;6.00;99.90
10662;DHT22;5379;51.034;7.006;2023-03-03T19:40:27;6.10;99.90
10662;DHT22;5379;51.034;7.006;2023-03-03T19:43:03;6.10;99.90
10662;DHT22;5379;51.034;7.006;2023-03-03T19:45:47;6.30;99.90
10662;DHT22;5379;51.034;7.006;2023-03-03T19:48:21;6.40;99.90
10662;DHT22;5379;51.034;7.006;2023-03-03T19:50:54;6.40;99.90
10662;DHT22;5379;51.034;7.006;2023-03-03T19:53:30;6.50;99.90
10662;DHT22;5379;51.034;7.006;2023-03-03T19:56:18;6.40;99.90
10662;DHT22;5379;51.034;7.006;2023-03-03T19:58:55;6.40;99.90
10662;DHT22;5379;51.034;7.006;2023-03-03T20:01:43;6.40;99.90
10662;DHT22;5379;51.034;7.006;2023-03-03T20:04:41;6.40;99.90
10662;DHT22;5379;51.034;7.006;2023-03-03T20:07:22;6.40;99.90
10662;DHT22;5379;51.034;7.006;2023-03-03T20:09:59;6.50;99.90
10662;DHT22;5379;51.034;7.006;2023-03-03T20:12:36;6.50;99.90
10662;DHT22;5379;51.034;7.006;2023-03-03T20:15:11;6.50;99.90
10662;DHT22;5379;51.034;7.006;2023-03-03T20:17:58;6.60;99.90
10662;DHT22;5379;51.034;7.006;2023-03-03T20:23:44;6.50;99.90
10662;DHT22;5379;51.034;7.006;2023-03-03T20:26:17;6.60;99.90
10662;DHT22;5379;51.034;7.006;2023-03-03T20:31:46;6.70;99.90
10662;DHT22;5379;51.034;7.006;2023-03-03T20:34:20;6.70;99.90
10662;DHT22;5379;51.034;7.006;2023-03-03T20:36:56;6.70;99.90
10662;DHT22;5379;51.034;7.006;2023-03-03T20:39:49;6.80;99.90
10662;DHT22;5379;51.034;7.006;2023-03-03T20:42:29;6.70;99.90
10662;DHT22;5379;51.034;7.006;2023-03-03T20:45:12;6.60;99.90
10662;DHT22;5379;51.034;7.006;2023-03-03T20:47:48;6.50;99.90
10662;DHT22;5379;51.034;7.006;2023-03-03T20:50:25;6.60;99.90
10662;DHT22;5379;51.034;7.006;2023-03-03T20:53:05;6.50;99.90
10662;DHT22;5379;51.034;7.006;2023-03-03T20:55:46;6.50;99.90
10662;DHT22;5379;51.034;7.006;2023-03-03T20:58:22;6.50;99.90
10662;DHT22;5379;51.034;7.006;2023-03-03T21:00:55;6.50;99.90
10662;DHT22;5379;51.034;7.006;2023-03-03T21:03:31;6.60;99.90
10662;DHT22;5379;51.034;7.006;2023-03-03T21:06:01;6.50;99.90
10662;DHT22;5379;51.034;7.006;2023-03-03T21:08:55;6.70;99.90
10662;DHT22;5379;51.034;7.006;2023-03-03T21:11:23;6.70;99.90
10662;DHT22;5379;51.034;7.006;2023-03-03T21:14:12;6.60;99.90
10662;DHT22;5379;51.034;7.006;2023-03-03T21:16:39;6.50;99.90
10662;DHT22;5379;51.034;7.006;2023-03-03T21:19:09;6.50;99.90
10662;DHT22;5379;51.034;7.006;2023-03-03T21:21:39;6.70;99.90
10662;DHT22;5379;51.034;7.006;2023-03-03T21:24:08;6.80;99.90
10662;DHT22;5379;51.034;7.006;2023-03-03T21:26:45;6.80;99.90
10662;DHT22;5379;51.034;7.006;2023-03-03T21:29:18;6.80;99.90
10662;DHT22;5379;51.034;7.006;2023-03-03T21:31:46;6.70;99.90
10662;DHT22;5379;51.034;7.006;2023-03-03T21:34:19;6.70;99.90
10662;DHT22;5379;51.034;7.006;2023-03-03T21:36:48;6.60;99.90
10662;DHT22;5379;51.034;7.006;2023-03-03T21:39:20;6.60;99.90
10662;DHT22;5379;51.034;7.006;2023-03-03T21:41:52;6.50;99.90
10662;DHT22;5379;51.034;7.006;2023-03-03T21:44:38;6.70;99.90
10662;DHT22;5379;51.034;7.006;2023-03-03T21:47:07;6.70;99.90
10662;DHT22;5379;51.034;7.006;2023-03-03T21:49:36;6.70;99.90
10662;DHT22;5379;51.034;7.006;2023-03-03T21:52:07;6.50;99.90
10662;DHT22;5379;51.034;7.006;2023-03-03T21:54:34;6.60;99.90
10662;DHT22;5379;51.034;7.006;2023-03-03T21:57:00;6.80;99.90
10662;DHT22;5379;51.034;7.006;2023-03-03T21:59:27;6.80;99.90
10662;DHT22;5379;51.034;7.006;2023-03-03T22:01:54;6.70;99.90
10662;DHT22;5379;51.034;7.006;2023-03-03T22:04:22;6.70;99.90
10662;DHT22;5379;51.034;7.006;2023-03-03T22:06:49;6.80;99.90
10662;DHT22;5379;51.034;7.006;2023-03-03T22:09:26;6.90;99.90
10662;DHT22;5379;51.034;7.006;2023-03-03T22:11:53;6.80;99.90
10662;DHT22;5379;51.034;7.006;2023-03-03T22:14:20;6.80;99.90
10662;DHT22;5379;51.034;7.006;2023-03-03T22:16:47;6.70;99.90
10662;DHT22;5379;51.034;7.006;2023-03-03T22:19:14;6.50;99.90
10662;DHT22;5379;51.034;7.006;2023-03-03T22:21:41;6.60;99.90
10662;DHT22;5379;51.034;7.006;2023-03-03T22:24:08;6.60;99.90
10662;DHT22;5379;51.034;7.006;2023-03-03T22:26:36;6.60;99.90
10662;DHT22;5379;51.034;7.006;2023-03-03T22:29:04;6.60;99.90
10662;DHT22;5379;51.034;7.006;2023-03-03T22:31:31;6.70;99.90
10662;DHT22;5379;51.034;7.006;2023-03-03T22:33:58;6.60;99.90
10662;DHT22;5379;51.034;7.006;2023-03-03T22:36:25;6.60;99.90
10662;DHT22;5379;51.034;7.006;2023-03-03T22:38:52;6.60;99.90
10662;DHT22;5379;51.034;7.006;2023-03-03T22:41:19;6.70;99.90
10662;DHT22;5379;51.034;7.006;2023-03-03T22:43:48;6.80;99.90
10662;DHT22;5379;51.034;7.006;2023-03-03T22:46:15;6.70;99.90
10662;DHT22;5379;51.034;7.006;2023-03-03T22:48:42;6.70;99.90
10662;DHT22;5379;51.034;7.006;2023-03-03T22:51:09;6.70;99.90
10662;DHT22;5379;51.034;7.006;2023-03-03T22:53:35;6.60;99.90
10662;DHT22;5379;51.034;7.006;2023-03-03T22:56:03;6.70;99.90
10662;DHT22;5379;51.034;7.006;2023-03-03T22:58:30;6.60;99.90
10662;DHT22;5379;51.034;7.006;2023-03-03T23:00:58;6.70;99.90
10662;DHT22;5379;51.034;7.006;2023-03-03T23:03:25;6.70;99.90
10662;DHT22;5379;51.034;7.006;2023-03-03T23:05:52;6.80;99.90
10662;DHT22;5379;51.034;7.006;2023-03-03T23:08:20;6.70;99.90
10662;DHT22;5379;51.034;7.006;2023-03-03T23:10:47;6.70;99.90
10662;DHT22;5379;51.034;7.006;2023-03-03T23:13:14;6.80;99.90
10662;DHT22;5379;51.034;7.006;2023-03-03T23:15:41;6.90;99.90
10662;DHT22;5379;51.034;7.006;2023-03-03T23:18:10;6.90;99.90
10662;DHT22;5379;51.034;7.006;2023-03-03T23:20:37;7.50;99.90
10662;DHT22;5379;51.034;7.006;2023-03-03T23:23:06;7.10;99.90
10662;DHT22;5379;51.034;7.006;2023-03-03T23:25:33;7.00;99.90
10662;DHT22;5379;51.034;7.006;2023-03-03T23:28:00;6.90;99.90
10662;DHT22;5379;51.034;7.006;2023-03-03T23:30:27;6.90;99.90
10662;DHT22;5379;51.034;7.006;2023-03-03T23:32:54;6.80;99.90
10662;DHT22;5379;51.034;7.006;2023-03-03T23:35:23;6.80;99.90
10662;DHT22;5379;51.034;7.006;2023-03-03T23:37:49;6.80;99.90
10662;DHT22;5379;51.034;7.006;2023-03-03T23:40:17;6.80;99.90
10662;DHT22;5379;51.034;7.006;2023-03-03T23:42:44;6.90;99.90
10662;DHT22;5379;51.034;7.006;2023-03-03T23:45:11;6.90;99.90
10662;DHT22;5379;51.034;7.006;2023-03-03T23:47:39;7.00;99.90
10662;DHT22;5379;51.034;7.006;2023-03-03T23:50:07;7.00;99.90
10662;DHT22;5379;51.034;7.006;2023-03-03T23:52:35;7.00;99.90
10662;DHT22;5379;51.034;7.006;2023-03-03T23:55:03;6.90;99.90
10662;DHT22;5379;51.034;7.006;2023-03-03T23:57:30;6.90;99.90
10662;DHT22;5379;51.034;7.006;2023-03-03T23:59:57;6.90;99.90
